METAR AND TAF INFORMATION
METAR FOR USSS
ADDS - METARS form results

(1839 UTC 24 September 2020)
Data provider http://aviationweather.gov/metar/data/
 
METAR text: USSS 241830Z 00000MPS CAVOK 01/00 Q1026 R26R/010060 NOSIG RMK QFE749/0999
Conditions at: USSS (EKATERINBURG , RU) observed 1830 UTC 24 September 2020
Temperature: 1.0°C (34°F)
Dewpoint: 0.0°C (32°F) [RH = 93%]
Pressure (altimeter): 30.30 inches Hg (1026.0 mb)
Winds: calm
Visibility: 6 or more miles (10+ km)
Ceiling: ceiling and visibility are OK
Clouds: unknown
Weather: no significant weather observed at this time

METAR text: USSS 241800Z 00000MPS CAVOK 01/00 Q1026 R26R/010060 NOSIG RMK QFE749/0998
Conditions at: USSS (EKATERINBURG , RU) observed 1800 UTC 24 September 2020
Temperature: 1.0°C (34°F)
Dewpoint: 0.0°C (32°F) [RH = 93%]
Pressure (altimeter): 30.30 inches Hg (1026.0 mb)
Winds: calm
Visibility: 6 or more miles (10+ km)
Ceiling: ceiling and visibility are OK
Clouds: unknown
Weather: no significant weather observed at this time

Forecast for: USSS (EKATERINBURG , RU)
Text: TAF USSS 241656Z 2418/2518 27003MPS 3100 BR SCT020
Forecast period: 1800 UTC 24 September 2020 to 0500 UTC 25 September 2020
Forecast type: FROM: standard forecast or significant change
Winds: from the W (270 degrees) at 7 MPH (6 knots; 3.1 m/s)
Visibility: 1.93 miles (3.11 km)
Ceiling: at least 12,000 feet AGL
Clouds: scattered clouds at 2000 feet AGL
Weather: BR  (mist)
Text: TEMPO 2419/2504 0300 FG VV002
Forecast period: 1900 UTC 24 September 2020 to 0400 UTC 25 September 2020
Forecast type: TEMPORARY: The following changes expected for less than half the time period
Visibility: 0.19 miles (0.31 km)
Ceiling: indefinite ceiling with vertical visibility of 200 feet AGL
Clouds: obscured sky
Weather: FG  (fog)
Text: FM250500 26003G10MPS CAVOK
Forecast period: 0500 to 1800 UTC 25 September 2020
Forecast type: FROM: standard forecast or significant change
Winds: from the W (260 degrees) at 7 MPH (6 knots; 3.1 m/s)
gusting to 22 MPH (19 knots; 9.8 m/s)
Visibility: 6 or more miles (10+ km)
Ceiling: unknown
Clouds: missing
Weather: NSW  (no significant weather)

 AIRPORT MAP

 RUNWAY INFORMATION

 AIRPORT FREQUENCIES
Type APP Name APP Frequency 125.9 MHZ
Type ATIS Name ATIS Frequency 127.8 MHZ
Type GCA Name GCA Frequency 120 MHZ
Type GND Name GND Frequency 119 MHZ
Type RDR Name ASR Frequency 118.7 MHZ
Type TWR Name TWR Frequency 120 MHZ

 AIRPORT NEAR NAVIGATION AIDS
Type NDB Name Koltsovo Frequency 786 KHZ
Type NDB Name Koltsovo Frequency 786 KHZ
Type NDB Name Koltsovo Frequency 370 KHZ
Type NDB Name Koltsovo Frequency 370 KHZ



2018 Air Astana Virtual Airline